createdAt,value
2019-02-23T00:02:10.585Z,1.60
2019-02-23T00:04:39.065Z,1.60
2019-02-23T00:07:07.497Z,1.60
2019-02-23T00:09:35.973Z,1.50
2019-02-23T00:12:04.784Z,1.40
2019-02-23T00:14:33.445Z,1.40
2019-02-23T00:17:01.863Z,1.30
2019-02-23T00:19:30.316Z,1.30
2019-02-23T00:21:58.730Z,1.30
2019-02-23T00:24:27.179Z,1.30
2019-02-23T00:26:55.595Z,1.30
2019-02-23T00:29:24.007Z,1.30
2019-02-23T00:31:52.673Z,1.30
2019-02-23T00:34:21.117Z,1.30
2019-02-23T00:36:49.585Z,1.20
2019-02-23T00:39:18.901Z,1.20
2019-02-23T00:41:47.329Z,1.10
2019-02-23T00:44:15.770Z,1.10
2019-02-23T00:46:44.218Z,1.00
2019-02-23T00:49:12.635Z,1.10
2019-02-23T00:51:41.097Z,1.10
2019-02-23T00:54:09.510Z,1.10
2019-02-23T00:56:37.962Z,1.00
2019-02-23T00:59:06.369Z,1.00
2019-02-23T01:01:35.756Z,1.10
2019-02-23T01:04:04.170Z,1.00
2019-02-23T01:06:32.609Z,0.90
2019-02-23T01:09:01.021Z,0.90
2019-02-23T01:11:29.445Z,0.90
2019-02-23T01:13:57.875Z,0.80
2019-02-23T01:16:26.314Z,0.90
2019-02-23T01:18:54.742Z,0.90
2019-02-23T01:21:23.154Z,0.90
2019-02-23T01:23:51.601Z,0.80
2019-02-23T01:26:20.021Z,0.80
2019-02-23T01:28:48.473Z,0.70
2019-02-23T01:31:17.180Z,0.70
2019-02-23T01:33:45.678Z,0.70
2019-02-23T01:36:14.098Z,0.70
2019-02-23T01:38:42.541Z,0.70
2019-02-23T01:41:10.964Z,0.70
2019-02-23T01:43:39.401Z,0.60
2019-02-23T01:46:07.832Z,0.50
2019-02-23T01:48:36.379Z,0.50
2019-02-23T01:51:04.900Z,0.50
2019-02-23T01:53:33.300Z,0.40
2019-02-23T01:56:01.718Z,0.40
2019-02-23T01:58:30.159Z,0.30
2019-02-23T02:00:58.594Z,0.20
2019-02-23T02:03:26.994Z,0.20
2019-02-23T02:05:55.429Z,0.20
2019-02-23T02:08:23.877Z,0.10
2019-02-23T02:10:52.338Z,-0.10
2019-02-23T02:13:20.829Z,-0.20
2019-02-23T02:15:49.521Z,-0.20
2019-02-23T02:18:17.942Z,-0.20
2019-02-23T02:20:46.410Z,-0.30
2019-02-23T02:23:14.861Z,-0.40
2019-02-23T02:25:43.293Z,-0.40
2019-02-23T02:28:11.714Z,-0.50
2019-02-23T02:30:40.136Z,-0.60
2019-02-23T02:33:08.587Z,-0.60
2019-02-23T02:35:37.007Z,-0.70
2019-02-23T02:38:05.441Z,-0.70
2019-02-23T02:40:33.893Z,-0.70
2019-02-23T02:43:02.388Z,-0.70
2019-02-23T02:45:30.811Z,-0.70
2019-02-23T02:47:59.248Z,-0.70
2019-02-23T02:50:28.003Z,-0.70
2019-02-23T02:52:56.490Z,-0.80
2019-02-23T02:55:24.911Z,-0.80
2019-02-23T02:57:53.455Z,-0.80
2019-02-23T03:00:21.873Z,-0.80
2019-02-23T03:02:50.295Z,-0.80
2019-02-23T03:05:18.748Z,-0.80
2019-02-23T03:07:47.148Z,-0.80
2019-02-23T03:10:15.591Z,-0.70
2019-02-23T03:12:44.032Z,-0.80
2019-02-23T03:15:12.469Z,-0.80
2019-02-23T03:17:40.890Z,-0.80
2019-02-23T03:20:09.399Z,-0.80
2019-02-23T03:22:37.838Z,-0.80
2019-02-23T03:25:07.012Z,-0.80
2019-02-23T03:27:35.429Z,-0.80
2019-02-23T03:30:04.827Z,-0.70
2019-02-23T03:32:33.255Z,-0.80
2019-02-23T03:35:01.750Z,-0.80
2019-02-23T03:37:30.198Z,-0.80
2019-02-23T03:39:58.609Z,-0.70
2019-02-23T03:42:27.054Z,-0.80
2019-02-23T03:44:55.470Z,-0.70
2019-02-23T03:47:23.925Z,-0.70
2019-02-23T03:49:52.351Z,-0.70
2019-02-23T03:52:20.802Z,-0.60
2019-02-23T03:54:49.229Z,-0.60
2019-02-23T03:57:17.666Z,-0.60
2019-02-23T03:59:46.349Z,-0.60
2019-02-23T04:02:14.908Z,-0.50
2019-02-23T04:04:43.335Z,-0.60
2019-02-23T04:07:11.736Z,-0.60
2019-02-23T04:09:40.165Z,-0.60
2019-02-23T04:12:08.665Z,-0.60
2019-02-23T04:14:37.094Z,-0.60
2019-02-23T04:17:05.503Z,-0.50
2019-02-23T04:19:33.927Z,-0.50
2019-02-23T04:22:02.370Z,-0.50
2019-02-23T04:24:33.677Z,-0.50
2019-02-23T04:27:02.114Z,-0.40
2019-02-23T04:29:30.561Z,-0.40
2019-02-23T04:31:58.987Z,-0.50
2019-02-23T04:34:27.817Z,-0.60
2019-02-23T04:36:56.282Z,-0.70
2019-02-23T04:39:24.784Z,-0.60
2019-02-23T04:41:53.261Z,-0.70
2019-02-23T04:44:21.727Z,-0.80
2019-02-23T04:46:50.163Z,-0.80
2019-02-23T04:49:18.602Z,-0.80
2019-02-23T04:51:47.026Z,-0.80
2019-02-23T04:54:15.454Z,-0.90
2019-02-23T04:56:43.906Z,-0.90
2019-02-23T04:59:12.335Z,-0.90
2019-02-23T05:01:40.770Z,-1.00
2019-02-23T05:04:09.195Z,-0.90
2019-02-23T05:06:37.698Z,-0.90
2019-02-23T05:09:06.141Z,-0.90
2019-02-23T05:11:34.616Z,-0.90
2019-02-23T05:14:03.025Z,-1.00
2019-02-23T05:16:31.507Z,-1.00
2019-02-23T05:18:59.997Z,-1.00
2019-02-23T05:21:28.482Z,-1.00
2019-02-23T05:23:56.925Z,-1.00
2019-02-23T05:26:25.345Z,-1.00
2019-02-23T05:28:53.788Z,-0.90
2019-02-23T05:31:22.411Z,-0.90
2019-02-23T05:33:50.920Z,-0.90
2019-02-23T05:36:19.346Z,-0.90
2019-02-23T05:38:48.168Z,-0.80
2019-02-23T05:41:16.627Z,-0.80
2019-02-23T05:43:45.046Z,-0.80
2019-02-23T05:46:13.465Z,-0.80
2019-02-23T05:48:41.904Z,-0.80
2019-02-23T05:51:10.344Z,-0.80
2019-02-23T05:53:38.865Z,-0.90
2019-02-23T05:56:07.285Z,-0.90
2019-02-23T05:58:35.722Z,-0.90
2019-02-23T06:01:04.162Z,-1.00
2019-02-23T06:03:32.613Z,-1.10
2019-02-23T06:06:01.036Z,-1.20
2019-02-23T06:08:29.467Z,-1.20
2019-02-23T06:10:57.911Z,-1.30
2019-02-23T06:13:26.361Z,-1.30
2019-02-23T06:15:54.778Z,-1.30
2019-02-23T06:18:23.205Z,-1.30
2019-02-23T06:20:51.650Z,-1.40
2019-02-23T06:23:20.082Z,-1.40
2019-02-23T06:25:48.581Z,-1.60
2019-02-23T06:28:17.025Z,-1.60
2019-02-23T06:30:45.542Z,-1.60
2019-02-23T06:33:13.967Z,-1.60
2019-02-23T06:35:42.483Z,-1.60
2019-02-23T06:38:10.901Z,-1.70
2019-02-23T06:40:39.362Z,-1.70
2019-02-23T06:43:07.791Z,-1.70
2019-02-23T06:45:36.325Z,-1.60
2019-02-23T06:48:04.742Z,-1.60
2019-02-23T06:50:33.173Z,-1.60
2019-02-23T06:53:01.637Z,-1.60
2019-02-23T06:55:30.095Z,-1.50
2019-02-23T06:57:58.590Z,-1.60
2019-02-23T07:00:27.018Z,-1.50
2019-02-23T07:02:55.501Z,-1.50
2019-02-23T07:05:23.960Z,-1.40
2019-02-23T07:07:52.413Z,-1.40
2019-02-23T07:10:21.202Z,-1.30
2019-02-23T07:12:49.697Z,-1.20
2019-02-23T07:15:18.116Z,-1.20
2019-02-23T07:17:46.690Z,-1.10
2019-02-23T07:20:15.105Z,-1.00
2019-02-23T07:22:43.630Z,-1.00
2019-02-23T07:25:12.080Z,-0.90
2019-02-23T07:27:40.506Z,-0.90
2019-02-23T07:30:11.671Z,-0.70
2019-02-23T07:32:40.118Z,-0.60
2019-02-23T07:35:09.261Z,-0.50
2019-02-23T07:37:37.812Z,-0.40
2019-02-23T07:40:12.044Z,-0.30
2019-02-23T07:42:41.506Z,-0.20
2019-02-23T07:45:10.866Z,-0.10
2019-02-23T07:47:39.305Z,0.00
2019-02-23T07:50:13.096Z,0.10
2019-02-23T07:52:41.605Z,0.20
2019-02-23T07:55:10.086Z,0.30
2019-02-23T07:57:38.521Z,0.40
2019-02-23T08:00:12.343Z,0.50
2019-02-23T08:02:40.767Z,0.60
2019-02-23T08:05:10.085Z,0.80
2019-02-23T08:07:39.897Z,0.80
2019-02-23T08:10:12.697Z,0.90
2019-02-23T08:12:41.119Z,0.90
2019-02-23T08:15:10.979Z,1.00
2019-02-23T08:17:39.389Z,1.00
2019-02-23T08:20:14.962Z,1.20
2019-02-23T08:22:43.673Z,1.30
2019-02-23T08:25:13.446Z,1.40
2019-02-23T08:27:41.886Z,1.50
2019-02-23T08:30:15.187Z,1.60
2019-02-23T08:32:43.757Z,1.70
2019-02-23T08:35:12.213Z,1.80
2019-02-23T08:37:40.639Z,1.90
2019-02-23T08:40:14.710Z,1.80
2019-02-23T08:42:43.157Z,1.80
2019-02-23T08:45:11.609Z,1.90
2019-02-23T08:47:40.073Z,1.80
2019-02-23T08:50:13.418Z,1.90
2019-02-23T08:52:49.056Z,1.90
2019-02-23T08:55:12.077Z,1.80
2019-02-23T08:57:40.495Z,1.80
2019-02-23T09:00:12.064Z,1.90
2019-02-23T09:02:40.515Z,1.90
2019-02-23T09:05:10.289Z,1.90
2019-02-23T09:07:38.834Z,1.90
2019-02-23T09:10:09.945Z,2.00
2019-02-23T09:12:38.437Z,2.00
2019-02-23T09:15:08.219Z,2.00
2019-02-23T09:17:36.718Z,2.00
2019-02-23T09:20:07.561Z,2.00
2019-02-23T09:22:36.014Z,2.00
2019-02-23T09:25:05.893Z,2.00
2019-02-23T09:27:34.336Z,2.10
2019-02-23T09:30:02.797Z,2.10
2019-02-23T09:32:31.295Z,2.20
2019-02-23T09:34:59.801Z,2.20
2019-02-23T09:37:28.296Z,2.20
2019-02-23T09:39:56.743Z,2.30
2019-02-23T09:42:25.227Z,2.40
2019-02-23T09:44:53.730Z,2.40
2019-02-23T09:47:22.166Z,2.50
2019-02-23T09:49:50.794Z,2.50
2019-02-23T09:52:19.308Z,2.50
2019-02-23T09:54:47.744Z,2.50
2019-02-23T09:57:16.188Z,2.50
2019-02-23T09:59:44.603Z,2.60
2019-02-23T10:02:13.050Z,2.70
2019-02-23T10:04:42.386Z,2.70
2019-02-23T10:07:10.805Z,2.70
2019-02-23T10:09:39.228Z,2.90
2019-02-23T10:12:07.703Z,3.00
2019-02-23T10:14:36.193Z,3.10
2019-02-23T10:17:04.650Z,3.20
2019-02-23T10:19:33.057Z,3.20
2019-02-23T10:22:01.546Z,3.40
2019-02-23T10:24:30.061Z,3.50
2019-02-23T10:26:58.582Z,3.60
2019-02-23T10:29:27.076Z,3.70
2019-02-23T10:31:55.552Z,3.70
2019-02-23T10:34:24.007Z,3.80
2019-02-23T10:36:52.498Z,3.80
2019-02-23T10:39:21.034Z,3.90
2019-02-23T10:41:49.509Z,3.90
2019-02-23T10:44:17.979Z,4.00
2019-02-23T10:46:46.460Z,4.00
2019-02-23T10:49:14.892Z,4.10
2019-02-23T10:51:43.526Z,4.10
2019-02-23T10:54:12.053Z,4.20
2019-02-23T10:56:40.478Z,4.20
2019-02-23T10:59:08.959Z,4.30
2019-02-23T11:01:37.386Z,4.30
2019-02-23T11:04:05.830Z,4.40
2019-02-23T11:06:34.313Z,4.40
2019-02-23T11:09:02.748Z,4.70
2019-02-23T11:11:31.177Z,4.90
2019-02-23T11:13:59.626Z,5.20
2019-02-23T11:16:28.071Z,5.40
2019-02-23T11:18:56.513Z,5.60
2019-02-23T11:21:25.025Z,5.90
2019-02-23T11:23:53.533Z,6.00
2019-02-23T11:26:22.154Z,6.20
2019-02-23T11:28:50.689Z,6.40
2019-02-23T11:31:19.351Z,6.60
2019-02-23T11:33:47.849Z,6.90
2019-02-23T11:36:16.311Z,7.10
2019-02-23T11:38:44.830Z,7.30
2019-02-23T11:41:13.518Z,7.40
2019-02-23T11:43:41.977Z,7.50
2019-02-23T11:46:10.466Z,7.60
2019-02-23T11:48:38.891Z,7.70
2019-02-23T11:51:07.367Z,7.70
2019-02-23T11:53:35.872Z,7.50
2019-02-23T11:56:04.433Z,7.50
2019-02-23T11:58:32.887Z,7.50
2019-02-23T12:01:01.389Z,7.30
2019-02-23T12:03:29.893Z,7.50
2019-02-23T12:05:58.305Z,7.60
2019-02-23T12:08:26.776Z,7.70
2019-02-23T12:10:55.209Z,7.60
2019-02-23T12:13:23.638Z,7.50
2019-02-23T12:15:52.050Z,7.40
2019-02-23T12:18:20.502Z,7.30
2019-02-23T12:20:49.820Z,7.20
2019-02-23T12:23:18.245Z,7.10
2019-02-23T12:25:46.679Z,7.10
2019-02-23T12:28:15.115Z,7.00
2019-02-23T12:30:43.551Z,7.00
2019-02-23T12:33:11.998Z,7.10
2019-02-23T12:35:40.502Z,7.20
2019-02-23T12:38:09.018Z,7.30
2019-02-23T12:40:37.449Z,7.30
2019-02-23T12:43:06.014Z,7.40
2019-02-23T12:45:34.441Z,7.50
2019-02-23T12:48:02.985Z,7.60
2019-02-23T12:50:33.353Z,7.60
2019-02-23T12:53:01.535Z,7.60
2019-02-23T12:55:29.990Z,7.60
2019-02-23T12:57:58.775Z,7.90
2019-02-23T13:00:27.195Z,8.00
2019-02-23T13:02:55.622Z,8.10
2019-02-23T13:05:24.063Z,8.20
2019-02-23T13:07:52.597Z,8.40
2019-02-23T13:10:21.388Z,8.30
2019-02-23T13:12:58.382Z,8.40
2019-02-23T13:15:29.864Z,8.50
2019-02-23T13:18:07.432Z,8.70
2019-02-23T13:21:14.169Z,8.60
2019-02-23T13:23:54.278Z,8.30
2019-02-23T13:26:43.748Z,8.20
2019-02-23T13:29:48.028Z,8.20
2019-02-23T13:32:37.242Z,8.00
2019-02-23T13:35:26.626Z,7.80
2019-02-23T13:38:15.870Z,7.70
2019-02-23T13:40:59.420Z,7.60
2019-02-23T13:43:47.201Z,7.60
2019-02-23T13:46:27.132Z,7.60
2019-02-23T13:49:10.081Z,7.60
2019-02-23T13:51:55.799Z,7.60
2019-02-23T13:54:38.659Z,7.70
2019-02-23T13:57:21.753Z,7.80
2019-02-23T13:59:55.709Z,7.80
2019-02-23T14:02:41.859Z,8.00
2019-02-23T14:05:22.653Z,8.50
2019-02-23T14:08:10.427Z,8.30
2019-02-23T14:10:41.917Z,8.40
2019-02-23T14:13:36.027Z,8.60
2019-02-23T14:16:16.035Z,8.70
2019-02-23T14:19:06.817Z,8.70
2019-02-23T14:22:00.561Z,8.80
2019-02-23T14:24:51.459Z,9.40
2019-02-23T14:27:42.159Z,10.10
2019-02-23T14:30:16.349Z,10.40
2019-02-23T14:33:22.101Z,10.30
2019-02-23T14:36:02.538Z,10.30
2019-02-23T14:38:51.777Z,10.20
2019-02-23T14:41:56.237Z,10.20
2019-02-23T14:44:27.739Z,9.90
2019-02-23T14:47:01.729Z,9.60
2019-02-23T14:49:57.195Z,9.50
2019-02-23T14:52:40.224Z,9.70
2019-02-23T14:55:11.749Z,9.80
2019-02-23T14:57:43.277Z,9.70
2019-02-23T15:00:40.389Z,9.80
2019-02-23T15:03:23.693Z,9.90
2019-02-23T15:06:04.031Z,10.20
2019-02-23T15:08:46.986Z,10.30
2019-02-23T15:11:18.525Z,10.60
2019-02-23T15:13:50.070Z,10.30
2019-02-23T15:16:38.314Z,10.10
2019-02-23T15:19:42.878Z,9.70
2019-02-23T15:22:14.392Z,9.20
2019-02-23T15:25:20.436Z,8.60
2019-02-23T15:28:11.337Z,8.00
2019-02-23T15:30:45.385Z,7.60
2019-02-23T15:33:28.985Z,7.30
2019-02-23T15:36:06.239Z,7.10
2019-02-23T15:38:46.637Z,6.90
2019-02-23T15:41:24.052Z,6.80
2019-02-23T15:44:10.696Z,6.70
2019-02-23T15:46:57.530Z,6.50
2019-02-23T15:49:27.766Z,6.30
2019-02-23T15:51:56.282Z,6.10
2019-02-23T15:54:24.858Z,6.00
2019-02-23T15:56:53.709Z,5.90
2019-02-23T15:59:22.157Z,5.70
2019-02-23T16:01:50.595Z,5.70
2019-02-23T16:04:19.075Z,5.60
2019-02-23T16:06:47.590Z,5.40
2019-02-23T16:09:16.220Z,5.30
2019-02-23T16:11:45.346Z,5.10
2019-02-23T16:14:13.893Z,5.00
2019-02-23T16:16:42.519Z,4.90
2019-02-23T16:19:10.949Z,4.80
2019-02-23T16:21:39.395Z,4.70
2019-02-23T16:24:07.996Z,4.60
2019-02-23T16:26:36.434Z,4.50
2019-02-23T16:29:04.885Z,4.50
2019-02-23T16:31:33.340Z,4.40
2019-02-23T16:34:01.880Z,4.20
2019-02-23T16:36:31.218Z,4.10
2019-02-23T16:38:59.696Z,4.10
2019-02-23T16:41:28.152Z,4.00
2019-02-23T16:43:56.560Z,3.90
2019-02-23T16:46:25.001Z,3.60
2019-02-23T16:48:53.470Z,3.40
2019-02-23T16:51:21.969Z,3.30
2019-02-23T16:53:50.493Z,3.20
2019-02-23T16:56:18.918Z,3.10
2019-02-23T16:58:47.371Z,3.10
2019-02-23T17:01:15.929Z,3.10
2019-02-23T17:03:44.362Z,3.20
2019-02-23T17:06:12.950Z,3.10
2019-02-23T17:08:41.453Z,3.00
2019-02-23T17:11:09.893Z,3.00
2019-02-23T17:13:38.294Z,3.10
2019-02-23T17:16:06.784Z,3.10
2019-02-23T17:18:35.200Z,3.10
2019-02-23T17:21:03.628Z,3.00
2019-02-23T17:23:32.969Z,2.90
2019-02-23T17:26:04.505Z,2.80
2019-02-23T17:28:31.793Z,2.80
2019-02-23T17:31:00.218Z,2.60
2019-02-23T17:33:28.634Z,2.50
2019-02-23T17:35:57.176Z,2.30
2019-02-23T17:38:25.644Z,2.20
2019-02-23T17:40:54.108Z,2.10
2019-02-23T17:43:22.535Z,2.00
2019-02-23T17:45:50.974Z,1.80
2019-02-23T17:48:20.318Z,2.00
2019-02-23T17:50:50.559Z,1.90
2019-02-23T17:53:19.158Z,2.00
2019-02-23T17:55:47.619Z,2.10
2019-02-23T17:58:16.112Z,2.10
2019-02-23T18:00:44.527Z,2.10
2019-02-23T18:03:12.958Z,2.20
2019-02-23T18:05:41.409Z,2.20
2019-02-23T18:08:09.863Z,2.10
2019-02-23T18:10:38.535Z,2.10
2019-02-23T18:13:06.989Z,2.10
2019-02-23T18:15:35.431Z,2.10
2019-02-23T18:18:03.889Z,2.10
2019-02-23T18:20:32.322Z,2.00
2019-02-23T18:23:00.749Z,2.20
2019-02-23T18:25:29.236Z,2.10
2019-02-23T18:27:57.670Z,2.10
2019-02-23T18:30:26.116Z,2.00
2019-02-23T18:32:54.676Z,2.00
2019-02-23T18:35:23.094Z,2.00
2019-02-23T18:37:51.542Z,1.90
2019-02-23T18:40:20.062Z,1.90
2019-02-23T18:42:48.553Z,1.90
2019-02-23T18:45:16.984Z,1.80
2019-02-23T18:47:45.420Z,1.90
2019-02-23T18:50:13.953Z,1.70
2019-02-23T18:52:42.537Z,1.60
2019-02-23T18:55:10.972Z,1.60
2019-02-23T18:57:39.473Z,1.60
2019-02-23T19:00:10.849Z,1.50
2019-02-23T19:02:39.292Z,1.50
2019-02-23T19:05:10.660Z,1.50
2019-02-23T19:07:39.412Z,1.50
2019-02-23T19:10:10.845Z,1.50
2019-02-23T19:12:39.458Z,1.60
2019-02-23T19:15:10.817Z,1.90
2019-02-23T19:17:39.262Z,1.90
2019-02-23T19:20:14.681Z,2.00
2019-02-23T19:22:43.098Z,2.20
2019-02-23T19:25:11.810Z,2.30
2019-02-23T19:27:40.233Z,2.30
2019-02-23T19:30:14.783Z,2.30
2019-02-23T19:32:43.327Z,2.20
2019-02-23T19:35:11.876Z,2.00
2019-02-23T19:37:40.385Z,1.90
2019-02-23T19:40:09.635Z,1.90
2019-02-23T19:42:38.072Z,1.80
2019-02-23T19:45:11.466Z,1.70
2019-02-23T19:47:41.825Z,1.60
2019-02-23T19:50:13.231Z,1.50
2019-02-23T19:52:41.733Z,1.50
2019-02-23T19:55:13.292Z,1.50
2019-02-23T19:57:41.737Z,1.50
2019-02-23T20:00:10.522Z,1.50
2019-02-23T20:02:39.242Z,1.40
2019-02-23T20:05:09.209Z,1.30
2019-02-23T20:07:37.832Z,1.20
2019-02-23T20:10:08.704Z,1.00
2019-02-23T20:12:37.129Z,0.90
2019-02-23T20:15:07.839Z,0.90
2019-02-23T20:17:36.317Z,0.90
2019-02-23T20:20:05.781Z,0.90
2019-02-23T20:22:34.367Z,0.90
2019-02-23T20:25:02.841Z,0.80
2019-02-23T20:27:31.385Z,0.90
2019-02-23T20:29:59.913Z,0.80
2019-02-23T20:32:28.547Z,0.70
2019-02-23T20:34:57.029Z,0.70
2019-02-23T20:37:25.454Z,0.90
2019-02-23T20:39:53.949Z,1.20
2019-02-23T20:42:22.474Z,1.20
2019-02-23T20:44:50.894Z,1.20
2019-02-23T20:47:19.356Z,1.10
2019-02-23T20:49:47.842Z,1.20
2019-02-23T20:52:16.280Z,1.40
2019-02-23T20:54:44.778Z,1.60
2019-02-23T20:57:13.979Z,1.70
2019-02-23T20:59:42.774Z,1.60
2019-02-23T21:02:11.251Z,1.50
2019-02-23T21:04:39.762Z,1.40
2019-02-23T21:07:08.272Z,1.30
2019-02-23T21:09:36.754Z,1.30
2019-02-23T21:12:05.233Z,1.40
2019-02-23T21:14:33.669Z,1.30
2019-02-23T21:17:02.172Z,1.30
2019-02-23T21:19:30.611Z,1.20
2019-02-23T21:21:59.076Z,1.20
2019-02-23T21:24:27.513Z,1.20
2019-02-23T21:26:56.023Z,1.20
2019-02-23T21:29:24.471Z,1.10
2019-02-23T21:31:53.777Z,1.10
2019-02-23T21:34:22.279Z,1.10
2019-02-23T21:36:50.764Z,1.00
2019-02-23T21:39:19.179Z,1.00
2019-02-23T21:41:47.660Z,0.90
2019-02-23T21:44:16.121Z,0.90
2019-02-23T21:46:44.536Z,0.90
2019-02-23T21:49:13.010Z,0.90
2019-02-23T21:51:41.439Z,0.90
2019-02-23T21:54:10.660Z,1.00
2019-02-23T21:56:42.052Z,1.00
2019-02-23T21:59:11.382Z,0.90
2019-02-23T22:01:39.870Z,0.90
2019-02-23T22:04:08.336Z,0.90
2019-02-23T22:06:36.750Z,1.00
2019-02-23T22:09:05.822Z,0.90
2019-02-23T22:11:34.247Z,0.80
2019-02-23T22:14:02.713Z,0.70
2019-02-23T22:16:31.130Z,0.60
2019-02-23T22:18:59.598Z,0.60
2019-02-23T22:21:28.102Z,0.70
2019-02-23T22:23:56.543Z,0.70
2019-02-23T22:26:24.978Z,0.70
2019-02-23T22:28:53.413Z,0.60
2019-02-23T22:31:22.001Z,0.60
2019-02-23T22:33:50.485Z,0.60
2019-02-23T22:36:18.927Z,0.60
2019-02-23T22:38:47.374Z,0.50
2019-02-23T22:41:15.851Z,0.30
2019-02-23T22:43:44.295Z,0.30
2019-02-23T22:46:12.729Z,0.30
2019-02-23T22:48:41.151Z,0.20
2019-02-23T22:51:09.577Z,0.20
2019-02-23T22:53:38.062Z,0.10
2019-02-23T22:56:06.480Z,0.00
2019-02-23T22:58:34.920Z,-0.10
2019-02-23T23:01:04.039Z,-0.10
2019-02-23T23:03:32.465Z,-0.10
2019-02-23T23:06:00.893Z,-0.20
2019-02-23T23:08:29.489Z,-0.20
2019-02-23T23:10:57.992Z,-0.30
2019-02-23T23:13:26.479Z,-0.40
2019-02-23T23:15:54.981Z,-0.50
2019-02-23T23:18:23.401Z,-0.50
2019-02-23T23:20:51.829Z,-0.50
2019-02-23T23:23:20.250Z,-0.60
2019-02-23T23:25:48.673Z,-0.60
2019-02-23T23:28:17.126Z,-0.60
2019-02-23T23:30:45.644Z,-0.60
2019-02-23T23:33:14.096Z,-0.70
2019-02-23T23:35:42.525Z,-0.70
2019-02-23T23:38:10.955Z,-0.70
2019-02-23T23:40:39.389Z,-0.80
2019-02-23T23:43:07.837Z,-0.90
2019-02-23T23:45:36.629Z,-0.90
2019-02-23T23:48:05.071Z,-1.00
2019-02-23T23:50:33.494Z,-1.00
2019-02-23T23:53:01.915Z,-1.10
2019-02-23T23:55:30.479Z,-1.10
2019-02-23T23:57:58.911Z,-1.10
